Аэропорт: Днепропетровск. Днепропетровск

ICAO: UKDD

METAR:
2021-01-24 18:00:00
UKDD 241800Z 13005MPS 100V170 CAVOK 03/M02 Q1011 R08/210370 NOSIG
METAR:
2021-01-24 17:02:00
TAF UKDD 241702Z 2418/2518 14005G10MPS 3100 BR BKN007 TX08/2512Z TN01/2504Z TEMPO 2418/2506 1100 -SHRA BR BKN003 BKN015CB TEMPO 2506/2518 15009G14MPS 2100 -SHRA BKN005 BKN020CB